Kezdőlap
METAR-TAF:

METAR-TAF

Repülőterek :

Wilson repülőtér

Nairobi, Kenya

földrajzi szélesség: 01-19S, földrajzi hosszúság: 036-49E, magasság: 1683 m

Jelenlegi meteorológiai megfigyelések

A jelentés 3 órával és 30 perccel ezelõtt készült, 21:00 UTC
Keleti szél 6 kt
Hőmérséklet 18°C
Páratartalom 73%
Légköri nyomás 1023 hPa
Látótávolság 10 km, vagy több
Szórványos felhőzet 2000 lábon
Szakadozott felhőzet 8000 lábon

METAR: HKNW 222100Z 09006KT 9999 SCT020 BKN080 18/13 Q1023

Idő: 03:30 (00:30 UTC)


TAF: hiányzik

Meteorológiai megfigyelések és előrejelzések több, mint 4000 repülőtéren (METAR és TAF jelentéseket).

A térképen piros és sárga pontok jelzik az elérhető meteorológiai állomásokat.

Mozgassa az egeret a pont fölött, hogy megjelenjen az állomás neve.

Azután kattintson az időjárási megfigyelések és előrejelzések megtekintéséhez.

A térkép megváltoztatása: kattintson a fekete keresztel jelölt zöld gombra ráközelítéshez, a vonallal jelölt zöld gombra távolításhoz, vagy a zöld nyilakra a szomszédos térképek eléréséhez.


METAR-TAF: